createdAt,value
2023-04-22T00:00:35.975Z,13.20
2023-04-22T00:10:41.739Z,24.50
2023-04-22T00:20:47.966Z,20.10
2023-04-22T00:30:53.520Z,22.40
2023-04-22T00:41:00.200Z,23.80
2023-04-22T00:51:06.522Z,22.90
2023-04-22T01:01:12.697Z,31.80
2023-04-22T01:11:18.922Z,23.30
2023-04-22T01:21:25.433Z,21.60
2023-04-22T01:31:31.813Z,27.40
2023-04-22T01:41:37.833Z,24.80
2023-04-22T01:51:43.825Z,26.90
2023-04-22T02:01:49.856Z,29.40
2023-04-22T02:11:55.781Z,31.90
2023-04-22T02:22:02.310Z,28.10
2023-04-22T02:32:08.146Z,29.50
2023-04-22T02:42:13.919Z,27.70
2023-04-22T02:52:20.077Z,39.30
2023-04-22T03:02:25.949Z,32.40
2023-04-22T03:12:31.740Z,33.40
2023-04-22T03:22:37.486Z,33.80
2023-04-22T03:32:43.293Z,28.80
2023-04-22T03:42:49.308Z,41.40
2023-04-22T03:52:55.590Z,29.90
2023-04-22T04:03:01.503Z,27.40
2023-04-22T04:13:07.863Z,34.20
2023-04-22T04:23:13.827Z,32.80
2023-04-22T04:33:19.620Z,37.00
2023-04-22T04:43:27.234Z,48.30
2023-04-22T04:53:33.141Z,31.60
2023-04-22T05:03:39.051Z,31.90
2023-04-22T05:13:45.414Z,31.60
2023-04-22T05:23:51.270Z,23.90
2023-04-22T05:33:56.997Z,35.00
2023-04-22T05:44:02.967Z,23.00
2023-04-22T05:54:09.378Z,20.10
2023-04-22T06:04:15.248Z,16.30
2023-04-22T06:14:21.594Z,13.40
2023-04-22T06:24:27.393Z,11.60
2023-04-22T06:34:33.722Z,7.20
2023-04-22T06:44:39.672Z,8.00
2023-04-22T06:54:45.576Z,7.70
2023-04-22T07:04:51.608Z,7.00
2023-04-22T07:14:57.338Z,3.90
2023-04-22T07:25:03.139Z,4.90
2023-04-22T07:35:10.693Z,4.40
2023-04-22T07:45:16.499Z,6.20
2023-04-22T08:05:26.733Z,4.70
2023-04-22T08:15:32.989Z,4.90
2023-04-22T08:25:39.148Z,7.20
2023-04-22T08:35:45.479Z,3.60
2023-04-22T08:45:52.284Z,5.00
2023-04-22T08:55:58.701Z,7.30
2023-04-22T09:16:10.789Z,5.30
2023-04-22T09:26:18.443Z,5.40
2023-04-22T09:36:27.356Z,5.00
2023-04-22T09:46:34.954Z,5.10
2023-04-22T09:56:48.141Z,8.40
2023-04-22T10:06:55.032Z,8.50
2023-04-22T10:17:04.141Z,4.40
2023-04-22T10:27:11.744Z,6.90
2023-04-22T10:47:32.855Z,5.00
2023-04-22T10:57:43.610Z,4.30
2023-04-22T11:07:50.712Z,6.00
2023-04-22T11:17:57.267Z,6.40
2023-04-22T11:28:03.896Z,8.20
2023-04-22T11:38:10.543Z,5.90
2023-04-22T11:48:17.433Z,3.40
2023-04-22T11:58:28.280Z,4.20
2023-04-22T12:08:36.775Z,3.50
2023-04-22T12:18:49.504Z,3.30
2023-04-22T12:28:56.220Z,8.00
2023-04-22T12:39:01.915Z,2.70
2023-04-22T12:49:07.753Z,3.60
2023-04-22T12:59:13.958Z,3.40
2023-04-22T13:09:19.881Z,3.10
2023-04-22T13:19:27.103Z,4.10
2023-04-22T13:29:32.865Z,3.40
2023-04-22T13:39:38.829Z,5.20
2023-04-22T13:49:45.132Z,3.50
2023-04-22T13:59:51.841Z,4.60
2023-04-22T14:09:57.689Z,4.40
2023-04-22T14:20:03.725Z,2.20
2023-04-22T14:30:11.400Z,3.20
2023-04-22T14:40:17.634Z,2.90
2023-04-22T14:50:23.426Z,3.30
2023-04-22T15:00:29.496Z,2.30
2023-04-22T15:10:35.346Z,3.90
2023-04-22T15:20:41.174Z,3.60
2023-04-22T15:30:48.707Z,11.00
2023-04-22T15:40:54.494Z,3.30
2023-04-22T15:51:00.185Z,2.30
2023-04-22T16:01:18.145Z,3.20
2023-04-22T16:11:25.409Z,4.10
2023-04-22T16:21:32.745Z,3.40
2023-04-22T16:31:38.961Z,2.30
2023-04-22T16:41:44.720Z,3.70
2023-04-22T16:51:51.198Z,3.00
2023-04-22T17:01:57.353Z,3.70
2023-04-22T17:12:03.519Z,5.50
2023-04-22T17:22:09.276Z,3.20
2023-04-22T17:32:15.154Z,3.70
2023-04-22T17:42:21.060Z,5.60
2023-04-22T17:52:27.901Z,3.40
2023-04-22T18:02:33.943Z,4.90
2023-04-22T18:12:40.013Z,47.10
2023-04-22T18:22:45.824Z,7.20
2023-04-22T18:32:51.980Z,6.70
2023-04-22T18:42:58.407Z,10.20
2023-04-22T18:53:04.213Z,8.80
2023-04-22T19:03:10.185Z,10.10
2023-04-22T19:13:28.575Z,12.10
2023-04-22T19:23:35.242Z,9.30
2023-04-22T19:33:41.027Z,7.70
2023-04-22T19:43:47.160Z,7.20
2023-04-22T19:53:55.316Z,11.80
2023-04-22T20:04:04.241Z,9.10
2023-04-22T20:14:10.678Z,8.00
2023-04-22T20:24:19.570Z,9.70
2023-04-22T20:34:26.958Z,10.10
2023-04-22T20:44:32.550Z,9.40
2023-04-22T20:54:39.319Z,9.50
2023-04-22T21:04:45.483Z,8.50
2023-04-22T21:14:51.733Z,8.20
2023-04-22T21:24:59.480Z,8.70
2023-04-22T21:35:05.899Z,8.70
2023-04-22T21:45:13.021Z,9.70
2023-04-22T21:55:19.208Z,9.40
2023-04-22T22:05:24.857Z,9.40
2023-04-22T22:15:30.584Z,8.80
2023-04-22T22:25:36.216Z,10.40
2023-04-22T22:35:42.011Z,9.50
2023-04-22T22:45:48.057Z,9.50
2023-04-22T22:55:54.047Z,9.10
2023-04-22T23:06:00.051Z,10.30
2023-04-22T23:16:06.472Z,9.40
2023-04-22T23:26:13.680Z,10.30
2023-04-22T23:36:21.412Z,10.30
2023-04-22T23:56:33.238Z,12.40
